Terminal Aerodrome Forecast
Issued by NWS Charleston, WV

Current Version | Previous Version | Text Only | Print | Product List | Glossary Off
Versions: 1 2 3 4 5 6 7 8 9 10 11 12 13 14 15 16 17

000
FTUS41 KRLX 251500 AAB
TAFBKW
TAF AMD
KBKW 251535Z 2516/2612 28010G18KT P6SM OVC020
     FM251800 28011G17KT P6SM BKN025
     FM252000 28008KT P6SM BKN035
     FM252300 27005KT P6SM SCT040
     FM260200 VRB03KT P6SM SCT200=

USA.gov is the U.S. government's official web portal to all federal, state and local government web resources and services.